createdAt,value
2016-11-27T00:00:56.128Z,0
2016-11-27T00:01:56.210Z,0
2016-11-27T00:02:56.166Z,0
2016-11-27T00:04:56.197Z,0
2016-11-27T00:05:56.219Z,0
2016-11-27T00:06:56.288Z,0
2016-11-27T00:08:56.264Z,0
2016-11-27T00:10:11.211Z,0
2016-11-27T00:11:11.227Z,0
2016-11-27T00:11:56.320Z,0
2016-11-27T00:12:56.339Z,0
2016-11-27T00:13:56.358Z,0
2016-11-27T00:14:56.375Z,0
2016-11-27T00:15:56.446Z,0
2016-11-27T00:17:11.336Z,0
2016-11-27T00:18:56.455Z,0
2016-11-27T00:19:56.488Z,0
2016-11-27T00:20:56.474Z,0
2016-11-27T00:21:56.498Z,0
2016-11-27T00:22:56.520Z,0
2016-11-27T00:23:56.528Z,0
2016-11-27T00:25:11.521Z,0
2016-11-27T00:25:56.565Z,0
2016-11-27T00:26:56.586Z,0
2016-11-27T00:28:11.522Z,0
2016-11-27T00:28:56.620Z,0
2016-11-27T00:30:11.554Z,0
2016-11-27T00:31:56.673Z,0
2016-11-27T00:32:56.691Z,0
2016-11-27T00:33:56.711Z,0
2016-11-27T00:34:56.723Z,0
2016-11-27T00:35:56.745Z,0
2016-11-27T00:36:56.766Z,0
2016-11-27T00:37:56.800Z,0
2016-11-27T00:39:11.717Z,0
2016-11-27T00:40:11.769Z,0
2016-11-27T00:40:56.867Z,0
2016-11-27T00:42:11.769Z,0
2016-11-27T00:43:11.783Z,0
2016-11-27T00:43:56.888Z,0
2016-11-27T00:44:56.901Z,0
2016-11-27T00:45:56.914Z,0
2016-11-27T00:46:56.942Z,0
2016-11-27T00:47:56.947Z,0
2016-11-27T00:49:11.892Z,0
2016-11-27T00:49:56.990Z,0
2016-11-27T00:50:57.051Z,0
2016-11-27T00:51:57.017Z,0
2016-11-27T00:52:57.034Z,0
2016-11-27T00:53:57.052Z,0
2016-11-27T00:54:57.068Z,0
2016-11-27T00:56:57.109Z,0
2016-11-27T00:58:12.049Z,0
2016-11-27T00:58:57.147Z,0
2016-11-27T01:00:12.082Z,0
2016-11-27T01:00:57.184Z,0
2016-11-27T01:01:57.196Z,0
2016-11-27T01:02:57.214Z,0
2016-11-27T01:03:57.235Z,0
2016-11-27T01:05:12.175Z,0
2016-11-27T01:06:12.189Z,0
2016-11-27T01:07:12.209Z,0
2016-11-27T01:09:12.249Z,0
2016-11-27T01:09:57.336Z,0
2016-11-27T01:10:57.357Z,0
2016-11-27T01:12:12.325Z,0
2016-11-27T01:12:57.395Z,0
2016-11-27T01:14:12.335Z,0
2016-11-27T01:15:12.344Z,0
2016-11-27T01:15:57.435Z,0
2016-11-27T01:17:12.439Z,0
2016-11-27T01:17:57.478Z,0
2016-11-27T01:18:57.493Z,0
2016-11-27T01:19:57.519Z,0
2016-11-27T01:21:12.455Z,0
2016-11-27T01:21:57.553Z,0
2016-11-27T01:22:57.568Z,0
2016-11-27T01:23:57.579Z,0
2016-11-27T01:24:57.601Z,0
2016-11-27T01:25:57.615Z,0
2016-11-27T01:26:57.688Z,0
2016-11-27T01:28:12.573Z,0
2016-11-27T01:30:12.613Z,0
2016-11-27T01:30:57.740Z,0
2016-11-27T01:31:57.735Z,0
2016-11-27T01:33:12.673Z,0
2016-11-27T01:33:57.771Z,0
2016-11-27T01:34:57.783Z,0
2016-11-27T01:35:57.799Z,0
2016-11-27T01:37:57.830Z,0
2016-11-27T01:38:57.857Z,0
2016-11-27T01:40:12.789Z,0
2016-11-27T01:40:57.895Z,0
2016-11-27T01:41:57.901Z,0
2016-11-27T01:42:57.917Z,0
2016-11-27T01:44:12.866Z,0
2016-11-27T01:45:12.881Z,0
2016-11-27T01:46:12.899Z,0
2016-11-27T01:47:58.014Z,0
2016-11-27T01:48:58.030Z,0
2016-11-27T01:51:12.990Z,0
2016-11-27T01:51:58.088Z,0
2016-11-27T01:52:58.102Z,0
2016-11-27T01:53:58.111Z,0
2016-11-27T01:54:58.134Z,0
2016-11-27T01:55:58.153Z,0
2016-11-27T01:56:58.176Z,0
2016-11-27T01:57:58.191Z,0
2016-11-27T01:58:58.207Z,0
2016-11-27T01:59:58.234Z,0
2016-11-27T02:00:58.257Z,0
2016-11-27T02:01:58.577Z,0
2016-11-27T02:03:13.221Z,0
2016-11-27T02:03:58.299Z,0
2016-11-27T02:05:13.253Z,0
2016-11-27T02:05:58.341Z,0
2016-11-27T02:07:13.326Z,0
2016-11-27T02:08:13.296Z,0
2016-11-27T02:08:58.400Z,0
2016-11-27T02:09:58.406Z,0
2016-11-27T02:10:58.427Z,0
2016-11-27T02:11:58.438Z,0
2016-11-27T02:12:58.460Z,0
2016-11-27T02:14:13.407Z,0
2016-11-27T02:14:58.495Z,0
2016-11-27T02:15:58.520Z,0
2016-11-27T02:17:13.464Z,0
2016-11-27T02:18:58.572Z,0
2016-11-27T02:19:58.591Z,0
2016-11-27T02:20:58.909Z,0
2016-11-27T02:21:58.653Z,0
2016-11-27T02:22:58.645Z,0
2016-11-27T02:23:58.662Z,0
2016-11-27T02:24:58.677Z,0
2016-11-27T02:25:58.693Z,0
2016-11-27T02:26:58.725Z,0
2016-11-27T02:27:58.732Z,0
2016-11-27T02:28:58.748Z,0
2016-11-27T02:29:58.767Z,0
2016-11-27T02:30:58.781Z,0
2016-11-27T02:31:58.812Z,0
2016-11-27T02:33:13.747Z,0
2016-11-27T02:33:58.843Z,0
2016-11-27T02:35:58.872Z,0
2016-11-27T02:36:58.944Z,0
2016-11-27T02:37:58.918Z,0
2016-11-27T02:38:58.936Z,0
2016-11-27T02:40:58.957Z,0
2016-11-27T02:41:58.981Z,0
2016-11-27T02:42:59.003Z,0
2016-11-27T02:43:59.018Z,0
2016-11-27T02:44:59.045Z,0
2016-11-27T02:46:13.974Z,0
2016-11-27T02:46:59.074Z,0
2016-11-27T02:47:59.091Z,0
2016-11-27T02:49:28.956Z,0
2016-11-27T02:49:59.135Z,0
2016-11-27T02:51:28.993Z,0
2016-11-27T02:51:59.166Z,0
2016-11-27T02:52:59.189Z,0
2016-11-27T02:53:59.255Z,0
2016-11-27T02:55:14.143Z,0
2016-11-27T02:55:59.239Z,0
2016-11-27T02:56:59.262Z,0
2016-11-27T02:58:59.295Z,0
2016-11-27T03:00:14.238Z,0
2016-11-27T03:00:59.328Z,0
2016-11-27T03:02:14.273Z,0
2016-11-27T03:02:59.368Z,0
2016-11-27T03:03:59.377Z,0
2016-11-27T03:05:14.322Z,0
2016-11-27T03:05:59.414Z,0
2016-11-27T03:06:59.439Z,0
2016-11-27T03:08:59.470Z,0
2016-11-27T03:09:59.509Z,0
2016-11-27T03:10:59.507Z,0
2016-11-27T03:11:59.525Z,0
2016-11-27T03:12:59.543Z,0
2016-11-27T03:13:59.565Z,0
2016-11-27T03:14:59.887Z,0
2016-11-27T03:15:59.612Z,0
2016-11-27T03:17:59.637Z,0
2016-11-27T03:19:14.576Z,0
2016-11-27T03:20:14.598Z,0
2016-11-27T03:20:59.700Z,0
2016-11-27T03:21:59.716Z,0
2016-11-27T03:23:00.030Z,0
2016-11-27T03:23:59.751Z,0
2016-11-27T03:24:59.798Z,0
2016-11-27T03:25:59.783Z,0
2016-11-27T03:26:59.802Z,0
2016-11-27T03:27:59.819Z,0
2016-11-27T03:28:59.838Z,0
2016-11-27T03:29:59.857Z,0
2016-11-27T03:30:59.880Z,0
2016-11-27T03:31:59.899Z,0
2016-11-27T03:32:59.961Z,0
2016-11-27T03:33:59.939Z,0
2016-11-27T03:35:00.297Z,0
2016-11-27T03:36:14.896Z,0
2016-11-27T03:36:59.986Z,0
2016-11-27T03:38:00.007Z,0
2016-11-27T03:39:00.027Z,0
2016-11-27T03:40:14.958Z,0
2016-11-27T03:41:00.058Z,0
2016-11-27T03:42:00.074Z,0
2016-11-27T03:43:00.107Z,0
2016-11-27T03:44:00.113Z,0
2016-11-27T03:45:00.135Z,0
2016-11-27T03:46:00.155Z,0
2016-11-27T03:47:15.096Z,0
2016-11-27T03:48:15.108Z,0
2016-11-27T03:49:00.206Z,0
2016-11-27T03:50:15.146Z,0
2016-11-27T03:51:15.167Z,0
2016-11-27T03:53:15.201Z,0
2016-11-27T03:54:00.301Z,0
2016-11-27T03:55:00.324Z,0
2016-11-27T03:56:15.249Z,0
2016-11-27T03:57:00.360Z,0
2016-11-27T03:58:00.368Z,0
2016-11-27T03:59:00.395Z,0
2016-11-27T04:00:00.460Z,0
2016-11-27T04:01:00.427Z,0
2016-11-27T04:03:00.467Z,0
2016-11-27T04:04:15.399Z,0
2016-11-27T04:05:00.492Z,0
2016-11-27T04:06:00.514Z,0
2016-11-27T04:07:15.460Z,0
2016-11-27T04:08:15.474Z,0
2016-11-27T04:09:15.487Z,0
2016-11-27T04:10:15.514Z,0
2016-11-27T04:11:00.613Z,0
2016-11-27T04:12:00.628Z,0
2016-11-27T04:13:00.639Z,0
2016-11-27T04:14:00.670Z,0
2016-11-27T04:15:00.681Z,0
2016-11-27T04:16:00.698Z,0
2016-11-27T04:17:01.014Z,0
2016-11-27T04:18:15.657Z,0
2016-11-27T04:19:00.757Z,0
2016-11-27T04:20:00.782Z,0
2016-11-27T04:21:00.798Z,0
2016-11-27T04:22:00.812Z,0
2016-11-27T04:23:00.829Z,0
2016-11-27T04:24:15.763Z,0
2016-11-27T04:25:15.789Z,0
2016-11-27T04:26:00.886Z,0
2016-11-27T04:27:00.931Z,0
2016-11-27T04:28:15.847Z,0
2016-11-27T04:29:00.934Z,0
2016-11-27T04:30:00.972Z,0
2016-11-27T04:31:15.909Z,0
2016-11-27T04:32:00.991Z,0
2016-11-27T04:33:01.007Z,0
2016-11-27T04:34:01.326Z,0
2016-11-27T04:35:01.043Z,0
2016-11-27T04:36:01.064Z,0
2016-11-27T04:37:16.013Z,0
2016-11-27T04:38:16.024Z,0
2016-11-27T04:39:01.117Z,0
2016-11-27T04:40:16.068Z,0
2016-11-27T04:41:01.166Z,0
2016-11-27T04:42:01.190Z,0
2016-11-27T04:43:01.257Z,0
2016-11-27T04:44:16.141Z,0
2016-11-27T04:45:01.236Z,0
2016-11-27T04:46:01.253Z,0
2016-11-27T04:47:01.267Z,0
2016-11-27T04:48:01.286Z,0
2016-11-27T04:49:01.303Z,0
2016-11-27T04:50:01.324Z,0
2016-11-27T04:52:16.286Z,0
2016-11-27T04:53:16.619Z,0
2016-11-27T04:54:01.427Z,0
2016-11-27T04:55:16.337Z,0
2016-11-27T04:56:01.435Z,0
2016-11-27T04:57:01.452Z,0
2016-11-27T04:58:01.781Z,0
2016-11-27T04:59:01.542Z,0
2016-11-27T05:00:01.503Z,0
2016-11-27T05:01:01.523Z,0
2016-11-27T05:02:01.541Z,0
2016-11-27T05:03:16.483Z,0
2016-11-27T05:04:01.586Z,0
2016-11-27T05:05:01.599Z,0
2016-11-27T05:06:01.616Z,0
2016-11-27T05:07:01.628Z,0
2016-11-27T05:08:01.651Z,0
2016-11-27T05:09:01.678Z,0
2016-11-27T05:10:01.693Z,0
2016-11-27T05:11:01.717Z,0
2016-11-27T05:12:01.715Z,0
2016-11-27T05:13:01.747Z,0
2016-11-27T05:14:01.767Z,0
2016-11-27T05:15:01.781Z,0
2016-11-27T05:16:01.837Z,0
2016-11-27T05:17:01.811Z,0
2016-11-27T05:18:01.833Z,0
2016-11-27T05:19:01.847Z,0
2016-11-27T05:20:16.790Z,0
2016-11-27T05:21:01.897Z,0
2016-11-27T05:22:01.903Z,0
2016-11-27T05:23:01.932Z,0
2016-11-27T05:24:02.141Z,0
2016-11-27T05:25:01.957Z,0
2016-11-27T05:26:16.904Z,0
2016-11-27T05:27:16.919Z,0
2016-11-27T05:28:02.009Z,0
2016-11-27T05:29:02.088Z,0
2016-11-27T05:30:16.971Z,0
2016-11-27T05:31:02.069Z,0
2016-11-27T05:32:02.088Z,0
2016-11-27T05:34:02.132Z,0
2016-11-27T05:35:17.063Z,0
2016-11-27T05:36:17.095Z,0
2016-11-27T05:37:02.174Z,0
2016-11-27T05:38:02.186Z,0
2016-11-27T05:39:02.209Z,0
2016-11-27T05:40:02.224Z,0
2016-11-27T05:41:02.242Z,0
2016-11-27T05:42:02.260Z,0
2016-11-27T05:43:17.204Z,0
2016-11-27T05:44:17.222Z,0
2016-11-27T05:45:02.323Z,0
2016-11-27T05:46:02.638Z,0
2016-11-27T05:47:02.355Z,0
2016-11-27T05:50:02.407Z,0
2016-11-27T05:51:02.429Z,0
2016-11-27T05:52:02.467Z,0
2016-11-27T05:53:02.461Z,0
2016-11-27T05:54:02.475Z,0
2016-11-27T05:55:02.495Z,0
2016-11-27T05:56:02.811Z,0
2016-11-27T05:57:02.534Z,0
2016-11-27T05:58:02.552Z,0
2016-11-27T05:59:17.496Z,0
2016-11-27T06:00:02.890Z,0
2016-11-27T06:01:02.602Z,0
2016-11-27T06:02:02.642Z,0
2016-11-27T06:03:02.634Z,0
2016-11-27T06:04:02.668Z,0
2016-11-27T06:05:17.602Z,0
2016-11-27T06:06:02.691Z,0
2016-11-27T06:07:17.633Z,0
2016-11-27T06:08:02.724Z,0
2016-11-27T06:09:02.749Z,0
2016-11-27T06:10:02.765Z,0
2016-11-27T06:11:02.784Z,0
2016-11-27T06:12:02.799Z,0
2016-11-27T06:13:17.739Z,0
2016-11-27T06:14:17.758Z,0
2016-11-27T06:16:02.918Z,0
2016-11-27T06:17:02.903Z,0
2016-11-27T06:18:02.906Z,0
2016-11-27T06:19:17.902Z,0
2016-11-27T06:20:02.944Z,0
2016-11-27T06:21:02.989Z,0
2016-11-27T06:22:02.983Z,0
2016-11-27T06:23:02.994Z,0
2016-11-27T06:24:17.946Z,0
2016-11-27T06:25:03.026Z,0
2016-11-27T06:26:03.348Z,0
2016-11-27T06:27:03.068Z,0
2016-11-27T06:28:03.115Z,0
2016-11-27T06:29:03.100Z,0
2016-11-27T06:30:18.041Z,0
2016-11-27T06:31:18.061Z,0
2016-11-27T06:32:03.189Z,0
2016-11-27T06:33:18.095Z,0
2016-11-27T06:34:18.117Z,0
2016-11-27T06:35:03.198Z,0
2016-11-27T06:36:03.228Z,0
2016-11-27T06:37:18.181Z,0
2016-11-27T06:38:03.561Z,0
2016-11-27T06:39:03.274Z,0
2016-11-27T06:40:03.305Z,0
2016-11-27T06:41:03.316Z,0
2016-11-27T06:42:03.332Z,5
2016-11-27T06:43:03.352Z,5
2016-11-27T06:44:03.369Z,5
2016-11-27T06:45:03.387Z,5
2016-11-27T06:47:18.367Z,5
2016-11-27T06:48:03.442Z,5
2016-11-27T06:49:03.459Z,5
2016-11-27T06:50:03.472Z,5
2016-11-27T06:51:03.493Z,5
2016-11-27T06:53:18.457Z,10
2016-11-27T06:54:03.574Z,10
2016-11-27T06:55:03.562Z,10
2016-11-27T06:56:03.579Z,10
2016-11-27T06:57:03.589Z,10
2016-11-27T06:58:03.615Z,10
2016-11-27T06:59:03.635Z,15
2016-11-27T07:01:18.593Z,15
2016-11-27T07:03:03.718Z,20
2016-11-27T07:04:03.795Z,20
2016-11-27T07:05:03.747Z,20
2016-11-27T07:06:03.757Z,20
2016-11-27T07:07:18.697Z,20
2016-11-27T07:08:03.781Z,20
2016-11-27T07:09:03.806Z,25
2016-11-27T07:11:03.841Z,25
2016-11-27T07:12:03.855Z,25
2016-11-27T07:13:03.877Z,25
2016-11-27T07:14:04.202Z,30
2016-11-27T07:15:18.837Z,30
2016-11-27T07:16:03.930Z,30
2016-11-27T07:17:03.954Z,30
2016-11-27T07:18:18.887Z,25
2016-11-27T07:19:18.906Z,20
2016-11-27T07:20:04.005Z,20
2016-11-27T07:21:04.325Z,20
2016-11-27T07:22:04.039Z,15
2016-11-27T07:23:04.055Z,15
2016-11-27T07:25:04.113Z,15
2016-11-27T07:27:04.220Z,15
2016-11-27T07:28:04.146Z,20
2016-11-27T07:29:04.158Z,20
2016-11-27T07:30:04.184Z,20
2016-11-27T07:31:04.200Z,20
2016-11-27T07:32:04.218Z,20
2016-11-27T07:33:19.152Z,25
2016-11-27T07:34:19.170Z,25
2016-11-27T07:35:04.272Z,25
2016-11-27T07:36:04.284Z,30
2016-11-27T07:37:04.304Z,30
2016-11-27T07:38:04.326Z,35
2016-11-27T07:39:04.341Z,40
2016-11-27T07:40:04.365Z,40
2016-11-27T07:41:04.384Z,40
2016-11-27T07:42:04.393Z,35
2016-11-27T07:43:04.409Z,35
2016-11-27T07:44:04.433Z,35
2016-11-27T07:45:04.449Z,35
2016-11-27T07:46:04.465Z,35
2016-11-27T07:47:04.528Z,35
2016-11-27T07:48:04.493Z,40
2016-11-27T07:49:34.367Z,40
2016-11-27T07:50:19.459Z,40
2016-11-27T07:51:19.516Z,45
2016-11-27T07:52:04.621Z,50
2016-11-27T07:53:04.588Z,50
2016-11-27T07:54:04.601Z,55
2016-11-27T07:55:04.635Z,55
2016-11-27T07:56:04.647Z,60
2016-11-27T07:57:04.715Z,65
2016-11-27T07:58:04.683Z,70
2016-11-27T07:59:04.695Z,70
2016-11-27T08:00:04.717Z,75
2016-11-27T08:01:19.656Z,75
2016-11-27T08:02:04.754Z,70
2016-11-27T08:03:19.692Z,70
2016-11-27T08:04:04.789Z,70
2016-11-27T08:05:34.656Z,70
2016-11-27T08:06:04.829Z,65
2016-11-27T08:07:19.762Z,65
2016-11-27T08:09:04.881Z,70
2016-11-27T08:10:04.996Z,70
2016-11-27T08:11:04.910Z,70
2016-11-27T08:12:04.933Z,70
2016-11-27T08:13:04.955Z,75
2016-11-27T08:14:04.965Z,80
2016-11-27T08:16:05.009Z,95
2016-11-27T08:17:19.944Z,95
2016-11-27T08:18:05.038Z,100
2016-11-27T08:19:05.059Z,100
2016-11-27T08:21:20.025Z,100
2016-11-27T08:22:20.035Z,100
2016-11-27T08:23:05.139Z,100
2016-11-27T08:24:05.145Z,100
2016-11-27T08:25:05.166Z,100
2016-11-27T08:26:05.188Z,100
2016-11-27T08:27:05.207Z,100
2016-11-27T08:28:05.227Z,100
2016-11-27T08:29:20.169Z,100
2016-11-27T08:30:20.183Z,100
2016-11-27T08:31:05.281Z,100
2016-11-27T08:32:05.292Z,100
2016-11-27T08:33:05.313Z,100
2016-11-27T08:34:05.341Z,100
2016-11-27T08:35:05.349Z,100
2016-11-27T08:36:20.293Z,100
2016-11-27T08:37:20.308Z,100
2016-11-27T08:39:20.354Z,100
2016-11-27T08:40:05.439Z,100
2016-11-27T08:41:05.457Z,100
2016-11-27T08:42:05.787Z,100
2016-11-27T08:43:05.546Z,100
2016-11-27T08:44:05.511Z,95
2016-11-27T08:46:05.551Z,100
2016-11-27T08:47:05.567Z,100
2016-11-27T08:48:20.560Z,100
2016-11-27T08:49:20.526Z,100
2016-11-27T08:50:05.629Z,100
2016-11-27T08:51:05.639Z,100
2016-11-27T08:53:20.610Z,100
2016-11-27T08:54:20.630Z,100
2016-11-27T08:55:20.649Z,100
2016-11-27T08:56:05.737Z,100
2016-11-27T08:57:05.760Z,100
2016-11-27T08:58:05.771Z,100
2016-11-27T08:59:20.721Z,100
2016-11-27T09:00:05.817Z,100
2016-11-27T09:01:05.828Z,100
2016-11-27T09:03:05.866Z,100
2016-11-27T09:04:05.951Z,100
2016-11-27T09:05:05.902Z,100
2016-11-27T09:06:05.924Z,105
2016-11-27T09:07:05.945Z,80
2016-11-27T09:09:20.906Z,105
2016-11-27T09:10:06.306Z,90
2016-11-27T09:11:06.018Z,105
2016-11-27T09:13:06.055Z,85
2016-11-27T09:14:20.987Z,100
2016-11-27T09:15:06.393Z,105
2016-11-27T09:16:21.034Z,105
2016-11-27T09:17:06.160Z,100
2016-11-27T09:18:21.070Z,110
2016-11-27T09:19:06.172Z,95
2016-11-27T09:20:06.197Z,105
2016-11-27T09:21:06.199Z,95
2016-11-27T09:22:06.226Z,85
2016-11-27T09:24:06.260Z,95
2016-11-27T09:26:06.337Z,95
2016-11-27T09:27:21.241Z,95
2016-11-27T09:28:21.555Z,100
2016-11-27T09:29:06.356Z,100
2016-11-27T09:30:06.377Z,105
2016-11-27T09:31:06.395Z,100
2016-11-27T09:32:21.369Z,85
2016-11-27T09:33:21.353Z,85
2016-11-27T09:34:06.449Z,100
2016-11-27T09:35:06.470Z,85
2016-11-27T09:36:06.488Z,95
2016-11-27T09:37:06.510Z,100
2016-11-27T09:38:36.427Z,95
2016-11-27T09:39:06.545Z,95
2016-11-27T09:41:21.558Z,95
2016-11-27T09:42:06.601Z,90
2016-11-27T09:43:06.622Z,90
2016-11-27T09:44:06.646Z,100
2016-11-27T09:45:06.658Z,95
2016-11-27T09:46:06.680Z,95
2016-11-27T09:47:06.697Z,95
2016-11-27T09:48:06.719Z,95
2016-11-27T09:49:21.657Z,90
2016-11-27T09:50:06.756Z,95
2016-11-27T09:51:06.777Z,95
2016-11-27T09:52:06.801Z,95
2016-11-27T09:53:21.735Z,95
2016-11-27T09:54:06.827Z,95
2016-11-27T09:55:06.854Z,95
2016-11-27T09:56:06.872Z,95
2016-11-27T09:57:06.884Z,85
2016-11-27T09:58:06.906Z,95
2016-11-27T09:59:06.930Z,105
2016-11-27T10:01:06.968Z,95
2016-11-27T10:02:06.981Z,90
2016-11-27T10:03:07.004Z,85
2016-11-27T10:04:07.048Z,95
2016-11-27T10:05:07.033Z,85
2016-11-27T10:06:21.977Z,85
2016-11-27T10:07:07.082Z,95
2016-11-27T10:08:07.095Z,90
2016-11-27T10:09:22.044Z,95
2016-11-27T10:10:22.055Z,85
2016-11-27T10:11:07.151Z,95
2016-11-27T10:12:22.089Z,90
2016-11-27T10:13:22.113Z,100
2016-11-27T10:14:07.208Z,105
2016-11-27T10:15:22.148Z,85
2016-11-27T10:16:22.165Z,90
2016-11-27T10:17:22.193Z,95
2016-11-27T10:18:07.291Z,100
2016-11-27T10:19:07.356Z,90
2016-11-27T10:20:07.322Z,85
2016-11-27T10:21:07.344Z,85
2016-11-27T10:22:22.292Z,90
2016-11-27T10:24:07.396Z,90
2016-11-27T10:25:22.336Z,80
2016-11-27T10:26:22.357Z,90
2016-11-27T10:27:07.459Z,80
2016-11-27T10:28:22.400Z,90
2016-11-27T10:29:07.809Z,105
2016-11-27T10:30:22.430Z,110
2016-11-27T10:32:07.561Z,95
2016-11-27T10:33:07.885Z,90
2016-11-27T10:34:07.591Z,95
2016-11-27T10:35:07.608Z,105
2016-11-27T10:36:07.645Z,95
2016-11-27T10:37:22.592Z,105
2016-11-27T10:38:22.589Z,110
2016-11-27T10:39:07.788Z,90
2016-11-27T10:40:07.708Z,90
2016-11-27T10:41:07.730Z,115
2016-11-27T10:42:22.666Z,100
2016-11-27T10:43:07.805Z,95
2016-11-27T10:44:22.701Z,85
2016-11-27T10:45:22.719Z,85
2016-11-27T10:46:07.819Z,100
2016-11-27T10:47:07.844Z,110
2016-11-27T10:48:07.861Z,100
2016-11-27T10:49:07.892Z,110
2016-11-27T10:50:07.900Z,100
2016-11-27T10:51:07.917Z,110
2016-11-27T10:52:22.862Z,95
2016-11-27T10:53:07.968Z,105
2016-11-27T10:54:07.972Z,100
2016-11-27T10:55:08.050Z,100
2016-11-27T10:56:08.018Z,100
2016-11-27T10:57:08.035Z,95
2016-11-27T10:58:08.045Z,85
2016-11-27T10:59:08.070Z,80
2016-11-27T11:00:23.012Z,80
2016-11-27T11:01:08.120Z,90
2016-11-27T11:02:08.127Z,100
2016-11-27T11:03:08.152Z,105
2016-11-27T11:05:08.199Z,90
2016-11-27T11:06:08.207Z,95
2016-11-27T11:07:23.304Z,100
2016-11-27T11:08:08.253Z,100
2016-11-27T11:09:08.273Z,100
2016-11-27T11:10:08.285Z,90
2016-11-27T11:11:08.306Z,85
2016-11-27T11:12:08.336Z,85
2016-11-27T11:13:23.268Z,90
2016-11-27T11:14:23.284Z,95
2016-11-27T11:15:23.307Z,95
2016-11-27T11:16:23.320Z,95
2016-11-27T11:17:23.348Z,90
2016-11-27T11:18:23.374Z,100
2016-11-27T11:19:08.455Z,95
2016-11-27T11:20:08.527Z,95
2016-11-27T11:21:08.497Z,85
2016-11-27T11:22:08.529Z,90
2016-11-27T11:23:08.544Z,90
2016-11-27T11:24:08.557Z,90
2016-11-27T11:25:08.604Z,95
2016-11-27T11:26:08.599Z,90
2016-11-27T11:27:08.665Z,90
2016-11-27T11:28:23.565Z,95
2016-11-27T11:29:08.668Z,80
2016-11-27T11:30:08.686Z,85
2016-11-27T11:31:08.708Z,85
2016-11-27T11:32:08.725Z,95
2016-11-27T11:33:08.740Z,80
2016-11-27T11:34:08.759Z,90
2016-11-27T11:35:08.783Z,80
2016-11-27T11:36:08.828Z,100
2016-11-27T11:37:08.815Z,80
2016-11-27T11:38:08.842Z,95
2016-11-27T11:39:08.855Z,70
2016-11-27T11:40:08.875Z,80
2016-11-27T11:41:08.900Z,90
2016-11-27T11:42:08.918Z,95
2016-11-27T11:43:08.937Z,95
2016-11-27T11:44:09.251Z,95
2016-11-27T11:45:09.293Z,95
2016-11-27T11:46:08.993Z,95
2016-11-27T11:47:23.937Z,95
2016-11-27T11:48:09.033Z,95
2016-11-27T11:49:23.968Z,95
2016-11-27T11:50:09.067Z,95
2016-11-27T11:51:24.015Z,95
2016-11-27T11:52:09.098Z,100
2016-11-27T11:53:09.133Z,105
2016-11-27T11:54:09.148Z,100
2016-11-27T11:55:24.100Z,100
2016-11-27T11:56:09.190Z,105
2016-11-27T11:57:24.128Z,105
2016-11-27T11:58:24.150Z,105
2016-11-27T11:59:09.244Z,105
2016-11-27T12:00:09.262Z,110
2016-11-27T12:01:09.584Z,110
2016-11-27T12:02:09.608Z,115
2016-11-27T12:03:24.242Z,115
2016-11-27T12:04:09.347Z,115
2016-11-27T12:05:09.670Z,85
2016-11-27T12:06:09.989Z,80
2016-11-27T12:07:09.399Z,100
2016-11-27T12:08:09.421Z,110
2016-11-27T12:09:09.438Z,85
2016-11-27T12:10:09.466Z,100
2016-11-27T12:11:24.404Z,80
2016-11-27T12:12:09.497Z,70
2016-11-27T12:13:09.520Z,75
2016-11-27T12:14:09.535Z,70
2016-11-27T12:15:09.567Z,70
2016-11-27T12:16:09.580Z,70
2016-11-27T12:18:09.622Z,70
2016-11-27T12:19:24.562Z,70
2016-11-27T12:20:09.662Z,70
2016-11-27T12:21:24.605Z,70
2016-11-27T12:22:24.614Z,70
2016-11-27T12:23:09.716Z,70
2016-11-27T12:24:09.732Z,70
2016-11-27T12:25:09.745Z,70
2016-11-27T12:26:09.771Z,75
2016-11-27T12:27:09.788Z,70
2016-11-27T12:28:09.820Z,65
2016-11-27T12:29:09.830Z,65
2016-11-27T12:30:09.854Z,85
2016-11-27T12:31:09.879Z,95
2016-11-27T12:32:24.812Z,70
2016-11-27T12:33:09.917Z,70
2016-11-27T12:34:09.930Z,70
2016-11-27T12:35:24.870Z,75
2016-11-27T12:36:09.965Z,75
2016-11-27T12:37:10.025Z,70
2016-11-27T12:38:10.009Z,85
2016-11-27T12:40:10.042Z,100
2016-11-27T12:41:24.991Z,70
2016-11-27T12:43:10.106Z,70
2016-11-27T12:44:10.120Z,70
2016-11-27T12:45:25.071Z,85
2016-11-27T12:46:10.462Z,70
2016-11-27T12:47:10.188Z,95
2016-11-27T12:48:10.199Z,80
2016-11-27T12:49:10.259Z,65
2016-11-27T12:50:25.161Z,65
2016-11-27T12:51:25.188Z,65
2016-11-27T12:52:10.288Z,65
2016-11-27T12:53:10.300Z,65
2016-11-27T12:54:25.251Z,65
2016-11-27T12:55:10.340Z,65
2016-11-27T12:56:10.353Z,80
2016-11-27T12:57:10.384Z,60
2016-11-27T12:58:10.395Z,60
2016-11-27T12:59:10.411Z,60
2016-11-27T13:00:25.357Z,90
2016-11-27T13:01:10.468Z,90
2016-11-27T13:02:10.484Z,65
2016-11-27T13:03:10.488Z,65
2016-11-27T13:04:25.444Z,60
2016-11-27T13:05:10.536Z,70
2016-11-27T13:06:10.545Z,60
2016-11-27T13:07:10.569Z,60
2016-11-27T13:08:10.649Z,60
2016-11-27T13:09:10.664Z,60
2016-11-27T13:10:10.633Z,90
2016-11-27T13:11:10.645Z,65
2016-11-27T13:12:10.661Z,60
2016-11-27T13:13:25.667Z,75
2016-11-27T13:14:25.628Z,60
2016-11-27T13:15:10.724Z,85
2016-11-27T13:16:10.747Z,60
2016-11-27T13:17:10.768Z,60
2016-11-27T13:18:10.782Z,85
2016-11-27T13:19:10.807Z,85
2016-11-27T13:20:10.826Z,75
2016-11-27T13:21:10.846Z,80
2016-11-27T13:22:40.709Z,70
2016-11-27T13:23:10.900Z,80
2016-11-27T13:24:10.918Z,80
2016-11-27T13:25:10.918Z,75
2016-11-27T13:26:10.948Z,75
2016-11-27T13:27:10.972Z,75
2016-11-27T13:28:10.978Z,75
2016-11-27T13:29:10.997Z,70
2016-11-27T13:31:40.890Z,70
2016-11-27T13:32:11.052Z,70
2016-11-27T13:33:26.001Z,55
2016-11-27T13:34:40.943Z,60
2016-11-27T13:35:11.108Z,50
2016-11-27T13:36:11.131Z,65
2016-11-27T13:37:26.070Z,60
2016-11-27T13:38:26.097Z,65
2016-11-27T13:39:11.192Z,50
2016-11-27T13:40:11.205Z,55
2016-11-27T13:41:11.227Z,55
2016-11-27T13:42:11.557Z,65
2016-11-27T13:43:11.273Z,65
2016-11-27T13:44:11.277Z,65
2016-11-27T13:45:11.309Z,75
2016-11-27T13:46:11.322Z,75
2016-11-27T13:47:11.376Z,70
2016-11-27T13:48:26.284Z,70
2016-11-27T13:49:11.389Z,70
2016-11-27T13:50:26.323Z,65
2016-11-27T13:51:26.345Z,60
2016-11-27T13:52:26.369Z,50
2016-11-27T13:53:11.465Z,50
2016-11-27T13:54:26.454Z,45
2016-11-27T13:55:26.420Z,50
2016-11-27T13:56:11.520Z,50
2016-11-27T13:57:11.536Z,45
2016-11-27T13:58:11.860Z,45
2016-11-27T13:59:11.574Z,50
2016-11-27T14:00:26.517Z,45
2016-11-27T14:01:11.919Z,45
2016-11-27T14:02:11.632Z,45
2016-11-27T14:03:11.701Z,45
2016-11-27T14:04:11.670Z,40
2016-11-27T14:05:11.709Z,40
2016-11-27T14:06:11.708Z,35
2016-11-27T14:07:11.727Z,35
2016-11-27T14:08:11.752Z,40
2016-11-27T14:09:11.775Z,35
2016-11-27T14:10:26.710Z,35
2016-11-27T14:11:11.815Z,35
2016-11-27T14:12:11.826Z,35
2016-11-27T14:13:11.843Z,35
2016-11-27T14:14:11.861Z,30
2016-11-27T14:15:11.895Z,30
2016-11-27T14:16:11.919Z,30
2016-11-27T14:17:11.922Z,30
2016-11-27T14:18:11.941Z,30
2016-11-27T14:19:12.280Z,30
2016-11-27T14:20:11.968Z,30
2016-11-27T14:21:11.996Z,30
2016-11-27T14:22:12.323Z,25
2016-11-27T14:23:12.071Z,25
2016-11-27T14:24:12.106Z,25
2016-11-27T14:25:26.992Z,25
2016-11-27T14:26:12.129Z,25
2016-11-27T14:27:27.028Z,25
2016-11-27T14:29:12.148Z,20
2016-11-27T14:30:12.176Z,20
2016-11-27T14:31:12.177Z,20
2016-11-27T14:32:12.202Z,20
2016-11-27T14:33:12.211Z,20
2016-11-27T14:34:12.237Z,20
2016-11-27T14:35:12.260Z,15
2016-11-27T14:37:12.294Z,15
2016-11-27T14:38:12.321Z,15
2016-11-27T14:39:12.330Z,15
2016-11-27T14:40:12.355Z,15
2016-11-27T14:41:12.367Z,15
2016-11-27T14:42:12.392Z,10
2016-11-27T14:43:12.414Z,10
2016-11-27T14:44:12.424Z,10
2016-11-27T14:45:12.445Z,10
2016-11-27T14:46:12.456Z,10
2016-11-27T14:47:12.490Z,10
2016-11-27T14:48:12.497Z,10
2016-11-27T14:49:27.443Z,5
2016-11-27T14:50:12.534Z,5
2016-11-27T14:51:12.562Z,5
2016-11-27T14:52:12.587Z,5
2016-11-27T14:53:12.593Z,5
2016-11-27T14:54:12.606Z,5
2016-11-27T14:55:12.637Z,5
2016-11-27T14:56:12.655Z,5
2016-11-27T14:57:27.589Z,5
2016-11-27T14:58:12.693Z,0
2016-11-27T14:59:27.662Z,0
2016-11-27T15:00:12.725Z,0
2016-11-27T15:01:27.669Z,0
2016-11-27T15:02:12.766Z,0
2016-11-27T15:03:12.780Z,0
2016-11-27T15:05:12.817Z,0
2016-11-27T15:06:12.825Z,0
2016-11-27T15:07:12.858Z,0
2016-11-27T15:08:12.870Z,0
2016-11-27T15:09:27.808Z,0
2016-11-27T15:10:12.944Z,0
2016-11-27T15:11:12.925Z,0
2016-11-27T15:13:27.886Z,0
2016-11-27T15:14:42.825Z,0
2016-11-27T15:15:13.001Z,0
2016-11-27T15:16:13.021Z,0
2016-11-27T15:17:27.962Z,0
2016-11-27T15:18:13.090Z,0
2016-11-27T15:19:13.070Z,0
2016-11-27T15:20:13.098Z,0
2016-11-27T15:21:13.109Z,0